Birch Creek GC
600 E Center St, Smithfield
Last Weather Update:11/25/2011 8:00:00 AM
Date
ETo
ETc
Rain
Irrigation
Req
Temp
Max
Temp
Min
Temp
Avg
Avg RH
Avg Wind
Avg Solar
inches
inches
incehs
inches
F
F
F
%
%
watts/m2
10/1/2011 0.18" 0.10" 0.00" 0.10" 82.3° 52.4° 68.0° 48.7% 4.2 MPH 215.2w/m2
10/2/2011 0.15" 0.09" 0.00" 0.09" 78.9° 55.6° 67.2° 53.8% 4.2 MPH 176.8w/m2
10/3/2011 0.17" 0.09" 0.00" 0.09" 81.7° 51.3° 64.5° 79.2% 4.0 MPH 209.3w/m2
10/4/2011 0.11" 0.05" 0.18" -0.09" 70.5° 52.2° 59.3° 81.3% 5.2 MPH 149.6w/m2
10/5/2011 0.06" 0.03" 0.27" -0.19" 61.9° 39.3° 53.0° 93.9% 6.4 MPH 56.3w/m2
10/6/2011 0.02" 0.01" 0.35" -0.27" 40.5° 34.5° 37.5° 86.6% 3.0 MPH 38.1w/m2
10/7/2011 0.02" 0.01" 0.24" -0.18" 41.2° 37.0° 39.3° 98.0% 3.3 MPH 24.4w/m2
10/8/2011 0.06" 0.03" 0.06" -0.02" 54.2° 38.3° 44.0° 75.3% 2.4 MPH 113.4w/m2
10/9/2011 0.10" 0.04" 0.00" 0.04" 59.0° 33.5° 45.2° 79.9% 3.1 MPH 194.5w/m2
10/10/2011 0.08" 0.03" 0.01" 0.03" 59.7° 36.1° 47.2° 76.4% 3.5 MPH 142.4w/m2
10/11/2011 0.07" 0.03" 0.23" -0.16" 61.2° 45.3° 51.2° 64.4% 4.4 MPH 84.4w/m2
10/12/2011 0.12" 0.04" 0.00" 0.04" 61.9° 39.4° 50.2° 69.3% 3.6 MPH 193.5w/m2
10/13/2011 0.11" 0.04" 0.00" 0.04" 68.7° 39.7° 52.5° 61.2% 3.1 MPH 185.0w/m2
10/14/2011 0.12" 0.04" 0.00" 0.04" 72.9° 42.3° 55.7° 59.0% 3.0 MPH 188.7w/m2
10/15/2011 0.12" 0.04" 0.00" 0.04" 77.1° 45.8° 59.3° 52.8% 2.9 MPH 174.8w/m2
10/16/2011 0.06" 0.02" 0.20" -0.14" 63.2° 44.5° 53.9° 96.6% 3.9 MPH 70.2w/m2
10/17/2011 0.10" 0.03" 0.04" -0.01" 58.7° 39.3° 48.1° 75.4% 3.0 MPH 179.3w/m2
10/18/2011 0.09" 0.02" 0.00" 0.02" 60.8° 33.3° 45.4° 75.9% 2.8 MPH 186.2w/m2
10/19/2011 0.10" 0.02" 0.00" 0.02" 64.4° 33.3° 47.7° 55.7% 3.5 MPH 176.2w/m2
10/20/2011 0.10" 0.02" 0.00" 0.02" 65.2° 36.2° 49.9° 63.1% 2.9 MPH 177.0w/m2
10/21/2011 0.10" 0.02" 0.00" 0.02" 66.3° 39.4° 51.4° 58.7% 3.0 MPH 169.0w/m2
10/22/2011 0.10" 0.02" 0.00" 0.02" 64.5° 39.2° 51.9° 63.9% 3.5 MPH 170.8w/m2
10/23/2011 0.10" 0.02" 0.00" 0.02" 68.8° 36.8° 50.6° 66.2% 2.9 MPH 173.0w/m2
10/24/2011 0.10" 0.01" 0.00" 0.01" 69.8° 39.4° 52.0° 65.4% 3.6 MPH 155.9w/m2
10/25/2011 0.06" 0.01" 0.02" -0.01" 48.8° 30.8° 40.0° 59.4% 3.5 MPH 129.6w/m2
10/26/2011 0.08" 0.01" 0.00" 0.01" 46.9° 24.3° 34.0° 56.8% 3.5 MPH 168.9w/m2
10/27/2011 0.08" 0.01" 0.00" 0.01" 50.0° 24.4° 35.8° 56.9% 3.0 MPH 161.0w/m2
10/28/2011 0.07" 0.00" 0.00" 0.00" 53.4° 23.7° 37.0° 43.7% 2.9 MPH 150.0w/m2
10/29/2011 0.07" 0.00" 0.00" 0.00" 58.2° 31.4° 43.2° 62.4% 2.9 MPH 103.7w/m2
10/30/2011 0.09" 0.00" 0.00" 0.00" 61.9° 32.0° 45.4° 65.2% 3.4 MPH 160.1w/m2
10/31/2011 0.05" 0.00" 0.09" -0.07" 63.0° 33.8° 46.1° 80.8% 2.8 MPH 89.0w/m2
Totals: 2.84" 0.88" 1.69" -0.47" 82.3° 23.7° 49.2° 68.6% 3.5 MPH 147.3w/m2